Terminal Aerodrome Forecast
Issued by NWS

Home | Current Version | Previous Version | Text Only | Print | Product List | Glossary Off
Versions: 1 2 3 4 5 6 7 8 9 10 11 12 13 14 15 16 17 18 19 20 21 22 23 24

000
FTUS43 KAPX 201700
TAFTVC
TAF
KTVC 201720Z 2018/2118 33005KT P6SM OVC025
     FM210100 00000KT P6SM SCT022
     FM210500 00000KT 1SM BR OVC005
     FM211400 00000KT P6SM OVC010
     FM211700 04005KT P6SM BKN025=

USA.gov is the U.S. government's official web portal to all federal, state and local government web resources and services.